sensor_id;sensor_type;location;lat;lon;timestamp;temperature;humidity
50560;DHT22;36510;52.610;13.468;2022-12-07T00:02:04;5.50;58.30
50560;DHT22;36510;52.610;13.468;2022-12-07T00:06:54;5.40;57.90
50560;DHT22;36510;52.610;13.468;2022-12-07T00:11:49;5.40;57.90
50560;DHT22;36510;52.610;13.468;2022-12-07T00:16:40;5.50;57.90
50560;DHT22;36510;52.610;13.468;2022-12-07T00:21:33;5.50;56.40
50560;DHT22;36510;52.610;13.468;2022-12-07T00:26:29;5.60;56.20
50560;DHT22;36510;52.610;13.468;2022-12-07T00:31:22;5.40;55.90
50560;DHT22;36510;52.610;13.468;2022-12-07T00:36:16;5.40;55.00
50560;DHT22;36510;52.610;13.468;2022-12-07T00:41:18;5.30;55.90
50560;DHT22;36510;52.610;13.468;2022-12-07T00:46:09;5.40;54.50
50560;DHT22;36510;52.610;13.468;2022-12-07T00:51:00;5.40;54.20
50560;DHT22;36510;52.610;13.468;2022-12-07T00:55:51;5.30;54.00
50560;DHT22;36510;52.610;13.468;2022-12-07T01:00:43;5.40;54.00
50560;DHT22;36510;52.610;13.468;2022-12-07T01:05:33;5.20;54.20
50560;DHT22;36510;52.610;13.468;2022-12-07T01:10:24;5.10;53.40
50560;DHT22;36510;52.610;13.468;2022-12-07T01:15:15;5.10;54.50
50560;DHT22;36510;52.610;13.468;2022-12-07T01:20:06;5.10;54.40
50560;DHT22;36510;52.610;13.468;2022-12-07T01:24:56;5.10;54.10
50560;DHT22;36510;52.610;13.468;2022-12-07T01:29:47;5.00;54.00
50560;DHT22;36510;52.610;13.468;2022-12-07T01:34:37;5.00;54.30
50560;DHT22;36510;52.610;13.468;2022-12-07T01:39:28;5.00;54.80
50560;DHT22;36510;52.610;13.468;2022-12-07T01:44:21;4.90;54.10
50560;DHT22;36510;52.610;13.468;2022-12-07T01:49:19;5.10;54.30
50560;DHT22;36510;52.610;13.468;2022-12-07T01:54:12;5.00;53.50
50560;DHT22;36510;52.610;13.468;2022-12-07T01:59:04;5.10;53.10
50560;DHT22;36510;52.610;13.468;2022-12-07T02:03:55;5.10;52.80
50560;DHT22;36510;52.610;13.468;2022-12-07T02:08:46;5.00;52.20
50560;DHT22;36510;52.610;13.468;2022-12-07T02:13:39;5.00;52.80
50560;DHT22;36510;52.610;13.468;2022-12-07T02:23:47;5.00;52.40
50560;DHT22;36510;52.610;13.468;2022-12-07T02:29:16;4.80;52.90
50560;DHT22;36510;52.610;13.468;2022-12-07T02:34:16;4.50;54.30
50560;DHT22;36510;52.610;13.468;2022-12-07T02:39:22;4.30;55.50
50560;DHT22;36510;52.610;13.468;2022-12-07T02:44:15;4.20;56.20
50560;DHT22;36510;52.610;13.468;2022-12-07T02:49:07;4.10;56.60
50560;DHT22;36510;52.610;13.468;2022-12-07T02:53:59;4.00;56.20
50560;DHT22;36510;52.610;13.468;2022-12-07T03:04:33;3.80;56.70
50560;DHT22;36510;52.610;13.468;2022-12-07T03:09:43;4.00;56.80
50560;DHT22;36510;52.610;13.468;2022-12-07T03:14:41;4.00;56.80
50560;DHT22;36510;52.610;13.468;2022-12-07T03:19:36;3.90;57.50
50560;DHT22;36510;52.610;13.468;2022-12-07T03:24:31;3.70;58.70
50560;DHT22;36510;52.610;13.468;2022-12-07T03:29:27;3.60;60.80
50560;DHT22;36510;52.610;13.468;2022-12-07T03:34:27;3.50;61.20
50560;DHT22;36510;52.610;13.468;2022-12-07T03:39:33;3.20;64.40
50560;DHT22;36510;52.610;13.468;2022-12-07T03:44:26;3.30;65.50
50560;DHT22;36510;52.610;13.468;2022-12-07T03:49:35;3.20;66.40
50560;DHT22;36510;52.610;13.468;2022-12-07T03:59:22;3.30;69.00
50560;DHT22;36510;52.610;13.468;2022-12-07T04:04:12;3.40;68.90
50560;DHT22;36510;52.610;13.468;2022-12-07T04:09:03;3.60;69.30
50560;DHT22;36510;52.610;13.468;2022-12-07T04:13:53;3.50;69.60
50560;DHT22;36510;52.610;13.468;2022-12-07T04:19:02;3.50;70.50
50560;DHT22;36510;52.610;13.468;2022-12-07T04:23:53;3.60;70.10
50560;DHT22;36510;52.610;13.468;2022-12-07T04:28:43;3.60;70.40
50560;DHT22;36510;52.610;13.468;2022-12-07T04:33:35;3.60;71.00
50560;DHT22;36510;52.610;13.468;2022-12-07T04:38:25;3.60;71.30
50560;DHT22;36510;52.610;13.468;2022-12-07T04:43:16;3.60;71.70
50560;DHT22;36510;52.610;13.468;2022-12-07T04:48:06;3.60;71.90
50560;DHT22;36510;52.610;13.468;2022-12-07T04:52:57;3.70;72.00
50560;DHT22;36510;52.610;13.468;2022-12-07T04:57:47;3.70;72.90
50560;DHT22;36510;52.610;13.468;2022-12-07T05:02:38;3.70;73.00
50560;DHT22;36510;52.610;13.468;2022-12-07T05:07:28;3.70;73.10
50560;DHT22;36510;52.610;13.468;2022-12-07T05:12:18;3.80;73.60
50560;DHT22;36510;52.610;13.468;2022-12-07T05:17:09;3.90;72.30
50560;DHT22;36510;52.610;13.468;2022-12-07T05:22:01;3.90;72.00
50560;DHT22;36510;52.610;13.468;2022-12-07T05:26:52;3.90;72.30
50560;DHT22;36510;52.610;13.468;2022-12-07T05:31:43;3.90;72.50
50560;DHT22;36510;52.610;13.468;2022-12-07T05:36:34;4.10;72.10
50560;DHT22;36510;52.610;13.468;2022-12-07T05:41:25;4.10;72.30
50560;DHT22;36510;52.610;13.468;2022-12-07T05:46:34;4.10;71.90
50560;DHT22;36510;52.610;13.468;2022-12-07T05:51:24;4.10;72.10
50560;DHT22;36510;52.610;13.468;2022-12-07T05:56:15;4.10;72.80
50560;DHT22;36510;52.610;13.468;2022-12-07T06:01:05;4.00;73.10
50560;DHT22;36510;52.610;13.468;2022-12-07T06:05:56;4.10;73.70
50560;DHT22;36510;52.610;13.468;2022-12-07T06:10:47;4.00;73.90
50560;DHT22;36510;52.610;13.468;2022-12-07T06:15:58;4.00;74.70
50560;DHT22;36510;52.610;13.468;2022-12-07T06:20:48;4.10;74.90
50560;DHT22;36510;52.610;13.468;2022-12-07T06:25:38;4.20;74.20
50560;DHT22;36510;52.610;13.468;2022-12-07T06:30:29;4.10;74.70
50560;DHT22;36510;52.610;13.468;2022-12-07T06:35:19;4.20;74.30
50560;DHT22;36510;52.610;13.468;2022-12-07T06:40:10;4.10;73.30
50560;DHT22;36510;52.610;13.468;2022-12-07T06:45:00;4.20;73.20
50560;DHT22;36510;52.610;13.468;2022-12-07T06:49:51;4.20;74.30
50560;DHT22;36510;52.610;13.468;2022-12-07T06:54:41;4.30;73.60
50560;DHT22;36510;52.610;13.468;2022-12-07T06:59:32;4.40;73.60
50560;DHT22;36510;52.610;13.468;2022-12-07T07:04:22;4.50;73.10
50560;DHT22;36510;52.610;13.468;2022-12-07T07:09:13;4.50;72.80
50560;DHT22;36510;52.610;13.468;2022-12-07T07:14:04;4.50;72.70
50560;DHT22;36510;52.610;13.468;2022-12-07T07:18:54;4.70;72.20
50560;DHT22;36510;52.610;13.468;2022-12-07T07:23:45;4.70;71.30
50560;DHT22;36510;52.610;13.468;2022-12-07T07:28:35;4.70;71.80
50560;DHT22;36510;52.610;13.468;2022-12-07T07:33:26;4.80;70.90
50560;DHT22;36510;52.610;13.468;2022-12-07T07:38:16;5.00;71.30
50560;DHT22;36510;52.610;13.468;2022-12-07T07:43:07;5.00;70.00
50560;DHT22;36510;52.610;13.468;2022-12-07T07:47:57;5.00;69.10
50560;DHT22;36510;52.610;13.468;2022-12-07T07:52:48;4.80;69.70
50560;DHT22;36510;52.610;13.468;2022-12-07T07:57:39;5.00;68.80
50560;DHT22;36510;52.610;13.468;2022-12-07T08:02:30;5.10;66.90
50560;DHT22;36510;52.610;13.468;2022-12-07T08:07:20;5.10;65.80
50560;DHT22;36510;52.610;13.468;2022-12-07T08:12:11;5.20;65.80
50560;DHT22;36510;52.610;13.468;2022-12-07T08:17:01;5.20;64.30
50560;DHT22;36510;52.610;13.468;2022-12-07T08:21:52;5.10;64.20
50560;DHT22;36510;52.610;13.468;2022-12-07T08:26:42;5.20;64.40
50560;DHT22;36510;52.610;13.468;2022-12-07T08:31:33;5.20;64.00
50560;DHT22;36510;52.610;13.468;2022-12-07T08:36:24;5.20;63.80
50560;DHT22;36510;52.610;13.468;2022-12-07T08:41:15;5.20;63.60
50560;DHT22;36510;52.610;13.468;2022-12-07T08:46:09;5.40;63.70
50560;DHT22;36510;52.610;13.468;2022-12-07T08:51:02;5.50;61.80
50560;DHT22;36510;52.610;13.468;2022-12-07T08:55:53;5.40;61.40
50560;DHT22;36510;52.610;13.468;2022-12-07T09:00:43;5.30;60.60
50560;DHT22;36510;52.610;13.468;2022-12-07T09:05:34;5.40;59.10
50560;DHT22;36510;52.610;13.468;2022-12-07T09:10:24;5.40;58.30
50560;DHT22;36510;52.610;13.468;2022-12-07T09:15:16;5.40;57.90
50560;DHT22;36510;52.610;13.468;2022-12-07T09:20:07;5.40;58.10
50560;DHT22;36510;52.610;13.468;2022-12-07T09:24:58;5.40;58.10
50560;DHT22;36510;52.610;13.468;2022-12-07T09:29:48;5.40;57.90
50560;DHT22;36510;52.610;13.468;2022-12-07T09:34:39;5.40;55.60
50560;DHT22;36510;52.610;13.468;2022-12-07T09:39:29;5.30;53.80
50560;DHT22;36510;52.610;13.468;2022-12-07T09:44:23;5.40;53.30
50560;DHT22;36510;52.610;13.468;2022-12-07T09:49:20;5.50;54.20
50560;DHT22;36510;52.610;13.468;2022-12-07T09:54:16;5.40;54.30
50560;DHT22;36510;52.610;13.468;2022-12-07T09:59:13;5.40;52.90
50560;DHT22;36510;52.610;13.468;2022-12-07T10:04:18;5.40;53.10
50560;DHT22;36510;52.610;13.468;2022-12-07T10:09:14;5.40;53.00
50560;DHT22;36510;52.610;13.468;2022-12-07T10:14:13;5.40;50.90
50560;DHT22;36510;52.610;13.468;2022-12-07T10:24:16;5.60;50.90
50560;DHT22;36510;52.610;13.468;2022-12-07T10:29:16;5.50;49.90
50560;DHT22;36510;52.610;13.468;2022-12-07T10:34:25;5.50;49.60
50560;DHT22;36510;52.610;13.468;2022-12-07T10:39:23;5.50;51.40
50560;DHT22;36510;52.610;13.468;2022-12-07T10:44:21;5.60;49.30
50560;DHT22;36510;52.610;13.468;2022-12-07T10:49:52;5.60;48.20
50560;DHT22;36510;52.610;13.468;2022-12-07T10:54:51;5.50;48.40
50560;DHT22;36510;52.610;13.468;2022-12-07T10:59:53;5.50;49.20
50560;DHT22;36510;52.610;13.468;2022-12-07T11:05:15;5.50;50.90
50560;DHT22;36510;52.610;13.468;2022-12-07T11:10:40;5.50;49.50
50560;DHT22;36510;52.610;13.468;2022-12-07T11:20:58;5.50;50.00
50560;DHT22;36510;52.610;13.468;2022-12-07T11:31:28;5.60;51.00
50560;DHT22;36510;52.610;13.468;2022-12-07T11:36:44;5.70;51.00
50560;DHT22;36510;52.610;13.468;2022-12-07T11:41:38;5.60;50.60
50560;DHT22;36510;52.610;13.468;2022-12-07T11:46:45;5.60;50.00
50560;DHT22;36510;52.610;13.468;2022-12-07T11:51:38;5.60;50.70
50560;DHT22;36510;52.610;13.468;2022-12-07T11:56:30;5.70;52.40
50560;DHT22;36510;52.610;13.468;2022-12-07T12:01:37;5.70;51.40
50560;DHT22;36510;52.610;13.468;2022-12-07T12:06:29;5.80;50.90
50560;DHT22;36510;52.610;13.468;2022-12-07T12:16:40;5.70;51.10
50560;DHT22;36510;52.610;13.468;2022-12-07T12:21:35;5.70;51.00
50560;DHT22;36510;52.610;13.468;2022-12-07T12:26:32;5.90;51.70
50560;DHT22;36510;52.610;13.468;2022-12-07T12:36:19;6.00;49.70
50560;DHT22;36510;52.610;13.468;2022-12-07T12:41:52;6.00;49.80
50560;DHT22;36510;52.610;13.468;2022-12-07T12:47:01;5.90;50.20
50560;DHT22;36510;52.610;13.468;2022-12-07T13:07:12;5.70;52.80
50560;DHT22;36510;52.610;13.468;2022-12-07T13:12:05;5.80;52.20
50560;DHT22;36510;52.610;13.468;2022-12-07T13:17:02;5.70;52.00
50560;DHT22;36510;52.610;13.468;2022-12-07T13:21:53;6.00;51.60
50560;DHT22;36510;52.610;13.468;2022-12-07T13:26:43;5.90;51.30
50560;DHT22;36510;52.610;13.468;2022-12-07T13:31:46;5.80;51.00
50560;DHT22;36510;52.610;13.468;2022-12-07T13:36:39;5.80;50.90
50560;DHT22;36510;52.610;13.468;2022-12-07T13:41:30;5.90;51.40
50560;DHT22;36510;52.610;13.468;2022-12-07T13:51:36;5.90;50.30
50560;DHT22;36510;52.610;13.468;2022-12-07T13:56:32;5.90;50.10
50560;DHT22;36510;52.610;13.468;2022-12-07T14:01:24;5.80;48.80
50560;DHT22;36510;52.610;13.468;2022-12-07T14:06:27;5.70;48.10
50560;DHT22;36510;52.610;13.468;2022-12-07T14:11:20;5.70;48.30
50560;DHT22;36510;52.610;13.468;2022-12-07T14:16:35;5.70;48.20
50560;DHT22;36510;52.610;13.468;2022-12-07T14:21:28;5.80;47.70
50560;DHT22;36510;52.610;13.468;2022-12-07T14:26:20;5.80;47.80
50560;DHT22;36510;52.610;13.468;2022-12-07T14:31:13;5.80;47.20
50560;DHT22;36510;52.610;13.468;2022-12-07T14:36:03;5.90;47.20
50560;DHT22;36510;52.610;13.468;2022-12-07T14:40:54;6.00;47.80
50560;DHT22;36510;52.610;13.468;2022-12-07T14:46:05;6.10;47.90
50560;DHT22;36510;52.610;13.468;2022-12-07T14:50:56;6.20;49.60
50560;DHT22;36510;52.610;13.468;2022-12-07T14:55:46;6.20;48.90
50560;DHT22;36510;52.610;13.468;2022-12-07T15:00:37;6.20;49.50
50560;DHT22;36510;52.610;13.468;2022-12-07T15:05:27;6.20;50.60
50560;DHT22;36510;52.610;13.468;2022-12-07T15:10:23;6.20;51.40
50560;DHT22;36510;52.610;13.468;2022-12-07T15:15:19;6.20;49.80
50560;DHT22;36510;52.610;13.468;2022-12-07T15:20:16;5.80;50.60
50560;DHT22;36510;52.610;13.468;2022-12-07T15:25:08;5.70;52.00
50560;DHT22;36510;52.610;13.468;2022-12-07T15:30:03;5.50;51.50
50560;DHT22;36510;52.610;13.468;2022-12-07T15:34:53;5.40;53.10
50560;DHT22;36510;52.610;13.468;2022-12-07T15:39:44;5.20;53.20
50560;DHT22;36510;52.610;13.468;2022-12-07T15:44:34;5.30;52.30
50560;DHT22;36510;52.610;13.468;2022-12-07T15:49:43;5.30;52.20
50560;DHT22;36510;52.610;13.468;2022-12-07T15:54:34;5.40;51.00
50560;DHT22;36510;52.610;13.468;2022-12-07T15:59:26;5.40;51.30
50560;DHT22;36510;52.610;13.468;2022-12-07T16:04:16;5.40;50.80
50560;DHT22;36510;52.610;13.468;2022-12-07T16:09:07;5.40;49.60
50560;DHT22;36510;52.610;13.468;2022-12-07T16:13:57;5.30;51.70
50560;DHT22;36510;52.610;13.468;2022-12-07T16:18:49;5.10;52.80
50560;DHT22;36510;52.610;13.468;2022-12-07T16:23:40;5.00;53.40
50560;DHT22;36510;52.610;13.468;2022-12-07T16:28:30;5.00;54.00
50560;DHT22;36510;52.610;13.468;2022-12-07T16:33:21;5.10;54.20
50560;DHT22;36510;52.610;13.468;2022-12-07T16:38:11;5.10;54.00
50560;DHT22;36510;52.610;13.468;2022-12-07T16:43:02;5.20;53.70
50560;DHT22;36510;52.610;13.468;2022-12-07T16:47:52;5.00;53.80
50560;DHT22;36510;52.610;13.468;2022-12-07T16:52:43;5.10;54.30
50560;DHT22;36510;52.610;13.468;2022-12-07T16:57:33;4.90;54.60
50560;DHT22;36510;52.610;13.468;2022-12-07T17:02:24;4.90;54.70
50560;DHT22;36510;52.610;13.468;2022-12-07T17:07:14;4.90;53.80
50560;DHT22;36510;52.610;13.468;2022-12-07T17:12:05;4.90;53.50
50560;DHT22;36510;52.610;13.468;2022-12-07T17:16:56;4.80;53.60
50560;DHT22;36510;52.610;13.468;2022-12-07T17:21:47;4.80;53.10
50560;DHT22;36510;52.610;13.468;2022-12-07T17:26:39;4.80;52.10
50560;DHT22;36510;52.610;13.468;2022-12-07T17:31:30;4.70;53.30
50560;DHT22;36510;52.610;13.468;2022-12-07T17:36:25;4.80;52.80
50560;DHT22;36510;52.610;13.468;2022-12-07T17:41:18;4.80;53.60
50560;DHT22;36510;52.610;13.468;2022-12-07T17:46:28;4.80;52.60
50560;DHT22;36510;52.610;13.468;2022-12-07T17:51:18;4.80;51.70
50560;DHT22;36510;52.610;13.468;2022-12-07T17:56:27;4.80;51.20
50560;DHT22;36510;52.610;13.468;2022-12-07T18:01:18;4.90;51.10
50560;DHT22;36510;52.610;13.468;2022-12-07T18:06:12;4.90;50.90
50560;DHT22;36510;52.610;13.468;2022-12-07T18:11:03;4.90;50.80
50560;DHT22;36510;52.610;13.468;2022-12-07T18:15:57;4.80;50.70
50560;DHT22;36510;52.610;13.468;2022-12-07T18:20:47;4.90;50.60
50560;DHT22;36510;52.610;13.468;2022-12-07T18:25:51;4.80;50.00
50560;DHT22;36510;52.610;13.468;2022-12-07T18:30:45;4.80;50.40
50560;DHT22;36510;52.610;13.468;2022-12-07T18:35:40;4.80;49.80
50560;DHT22;36510;52.610;13.468;2022-12-07T18:40:30;4.80;49.40
50560;DHT22;36510;52.610;13.468;2022-12-07T18:45:24;4.70;49.70
50560;DHT22;36510;52.610;13.468;2022-12-07T18:50:15;4.60;50.70
50560;DHT22;36510;52.610;13.468;2022-12-07T18:55:06;4.70;50.80
50560;DHT22;36510;52.610;13.468;2022-12-07T19:00:01;4.60;50.20
50560;DHT22;36510;52.610;13.468;2022-12-07T19:04:52;4.30;50.40
50560;DHT22;36510;52.610;13.468;2022-12-07T19:09:42;4.40;50.00
50560;DHT22;36510;52.610;13.468;2022-12-07T19:14:35;4.50;49.70
50560;DHT22;36510;52.610;13.468;2022-12-07T19:24:23;4.50;47.80
50560;DHT22;36510;52.610;13.468;2022-12-07T19:29:14;4.50;47.50
50560;DHT22;36510;52.610;13.468;2022-12-07T19:34:13;4.50;46.80
50560;DHT22;36510;52.610;13.468;2022-12-07T19:39:05;4.40;47.00
50560;DHT22;36510;52.610;13.468;2022-12-07T19:43:58;4.40;46.90
50560;DHT22;36510;52.610;13.468;2022-12-07T19:48:53;4.40;47.20
50560;DHT22;36510;52.610;13.468;2022-12-07T19:53:44;4.40;46.70
50560;DHT22;36510;52.610;13.468;2022-12-07T19:58:40;4.40;46.40
50560;DHT22;36510;52.610;13.468;2022-12-07T20:03:33;4.40;47.10
50560;DHT22;36510;52.610;13.468;2022-12-07T20:08:24;4.30;47.50
50560;DHT22;36510;52.610;13.468;2022-12-07T20:13:19;4.30;47.20
50560;DHT22;36510;52.610;13.468;2022-12-07T20:18:18;4.30;46.30
50560;DHT22;36510;52.610;13.468;2022-12-07T20:23:09;4.30;46.00
50560;DHT22;36510;52.610;13.468;2022-12-07T20:27:59;4.30;45.90
50560;DHT22;36510;52.610;13.468;2022-12-07T20:32:50;4.20;46.20
50560;DHT22;36510;52.610;13.468;2022-12-07T20:37:40;4.20;47.00
50560;DHT22;36510;52.610;13.468;2022-12-07T20:42:30;4.30;47.10
50560;DHT22;36510;52.610;13.468;2022-12-07T20:47:27;4.20;47.00
50560;DHT22;36510;52.610;13.468;2022-12-07T20:52:17;4.30;47.40
50560;DHT22;36510;52.610;13.468;2022-12-07T20:57:09;4.30;47.40
50560;DHT22;36510;52.610;13.468;2022-12-07T21:02:00;4.20;47.10
50560;DHT22;36510;52.610;13.468;2022-12-07T21:06:51;4.40;46.90
50560;DHT22;36510;52.610;13.468;2022-12-07T21:11:41;4.40;46.50
50560;DHT22;36510;52.610;13.468;2022-12-07T21:16:31;4.30;46.20
50560;DHT22;36510;52.610;13.468;2022-12-07T21:21:22;4.40;46.90
50560;DHT22;36510;52.610;13.468;2022-12-07T21:26:15;4.30;46.60
50560;DHT22;36510;52.610;13.468;2022-12-07T21:31:06;4.30;47.20
50560;DHT22;36510;52.610;13.468;2022-12-07T21:35:57;4.30;47.60
50560;DHT22;36510;52.610;13.468;2022-12-07T21:40:48;4.30;47.10
50560;DHT22;36510;52.610;13.468;2022-12-07T21:45:38;4.30;46.90
50560;DHT22;36510;52.610;13.468;2022-12-07T21:50:29;4.20;47.20
50560;DHT22;36510;52.610;13.468;2022-12-07T21:55:19;4.20;47.40
50560;DHT22;36510;52.610;13.468;2022-12-07T22:00:10;4.20;47.60
50560;DHT22;36510;52.610;13.468;2022-12-07T22:05:01;4.20;48.40
50560;DHT22;36510;52.610;13.468;2022-12-07T22:09:51;4.10;48.50
50560;DHT22;36510;52.610;13.468;2022-12-07T22:14:42;4.00;48.20
50560;DHT22;36510;52.610;13.468;2022-12-07T22:19:51;4.00;48.90
50560;DHT22;36510;52.610;13.468;2022-12-07T22:24:42;4.00;49.40
50560;DHT22;36510;52.610;13.468;2022-12-07T22:29:33;3.70;51.00
50560;DHT22;36510;52.610;13.468;2022-12-07T22:34:24;3.50;51.80
50560;DHT22;36510;52.610;13.468;2022-12-07T22:39:14;3.20;55.70
50560;DHT22;36510;52.610;13.468;2022-12-07T22:44:06;3.00;57.80
50560;DHT22;36510;52.610;13.468;2022-12-07T22:48:57;3.10;58.70
50560;DHT22;36510;52.610;13.468;2022-12-07T22:53:47;3.10;58.70
50560;DHT22;36510;52.610;13.468;2022-12-07T22:58:38;3.20;57.80
50560;DHT22;36510;52.610;13.468;2022-12-07T23:03:29;3.30;57.70
50560;DHT22;36510;52.610;13.468;2022-12-07T23:08:20;3.10;58.00
50560;DHT22;36510;52.610;13.468;2022-12-07T23:13:13;3.10;58.80
50560;DHT22;36510;52.610;13.468;2022-12-07T23:18:24;3.20;58.80
50560;DHT22;36510;52.610;13.468;2022-12-07T23:23:15;3.20;58.00
50560;DHT22;36510;52.610;13.468;2022-12-07T23:28:06;3.10;58.00
50560;DHT22;36510;52.610;13.468;2022-12-07T23:32:56;3.20;57.90
50560;DHT22;36510;52.610;13.468;2022-12-07T23:37:47;3.20;57.30
50560;DHT22;36510;52.610;13.468;2022-12-07T23:42:37;3.20;56.90
50560;DHT22;36510;52.610;13.468;2022-12-07T23:47:28;3.10;57.60
50560;DHT22;36510;52.610;13.468;2022-12-07T23:52:18;3.00;57.20
50560;DHT22;36510;52.610;13.468;2022-12-07T23:57:09;2.90;58.10
